Sarasota Bradenton International Airport
KSRQ : now visible

Airfield :











YOU CAN JOIN US ON...

 
LOGIN :

Register | Disclaimer

   EN    FR    IT 

 









Legend :    VFR   Marginal VFR   IFR   Intensive IFR   Very Intensive IFR
Visi :
Ceiling :
>= 8 km
>= 3000ft
5 to 8 km
1000 to 3000 ft
1500m to 5 km
500 to 1000 ft
800 to 1500m
200 to 500 ft
< 800m
< 200 ft
Symbols :   Thunderstorms  Fog  Heavy snow  Heavy precipitations  Wind > 20 kt






- Airport Elevation : 30 ft
- IATA code : SRQ


KSRQ - Sarasota Bradenton International

CURRENT METAR :
  • 202153Z AUTO 22008KT 10SM CLR 31/25 A3001 RMK AO2 SLP163 T03060250

EXPIRED METARs :
  • 202053Z 23009KT 10SM CLR 31/25 A3003 RMK AO2 SLP167 T03110250 58006
  • 201953Z 24010KT 10SM CLR 32/24 A3004 RMK AO2 SLP172 T03170244

TAF KSRQ
Valid from the 20 at 18:00 until the 21 at 18:00 UTC


201720Z 2018/2118 23010KT P6SM SCT035 SCT150 BKN200
FM202000 26009KT P6SM VCTS SCT040CB SCT150 OVC200
FM210300 20004KT P6SM FEW025 SCT150 BKN200
FM211200 17005KT P6SM VCSH SCT025 SCT150 BKN200
FM211500 20007KT P6SM VCTS SCT025CB BKN120 OVC200
KZMA FIR / North America



MET'MAP, your aeronautical weather chart ! - Copyright ORBIFLY December 2007 - Disclaimer

ORBIFLY MET'MAP TEAM :

Programming & Development : Alexandra Zaïnal
Concept & original design : Baudouin d'Aumeries
Assistance for programming : Marc-Olivier Méhu
Technical & hardware support : Manuel Goepfert

Contact : metmap@orbifly.com




SOURCES & CREDITS :

   NOAA       Earth
Advisory